Time;durP1;ratioP1;P1;durP2;ratioP2;P2;SDS_P1;SDS_P2;PMS_P1;PMS_P2;Temp;Humidity;BMP_temperature;BMP_pressure;BME280_temperature;BME280_humidity;BME280_pressure;Samples;Min_cycle;Max_cycle;Signal;HPM_P1;HPM_P2
2021/12/20 04:58:59;;;;;;;3.60;2.00;;;;;;;5.29;62.96;100435.22;5606139;31;76961;-58
2021/12/20 05:02:03;;;;;;;4.18;2.45;;;;;;;5.29;62.96;100435.22;5593070;31;32023;-58
2021/12/20 05:05:06;;;;;;;4.28;2.00;;;;;;;4.90;67.22;100459.06;5603728;31;33512;-58
2021/12/20 05:08:10;;;;;;;4.25;2.25;;;;;;;5.12;61.55;100459.16;5592169;31;33708;-58
2021/12/20 05:11:13;;;;;;;5.03;2.45;;;;;;;5.16;61.36;100460.28;5595981;31;33812;-58
2021/12/20 05:14:17;;;;;;;2.97;2.10;;;;;;;4.81;61.31;100453.38;5589265;31;33592;-58
2021/12/20 05:17:19;;;;;;;4.25;2.17;;;;;;;4.85;61.57;100451.81;5584115;31;33512;-58
2021/12/20 05:20:21;;;;;;;5.50;2.50;;;;;;;4.87;60.99;100460.37;5595185;31;33826;-58
2021/12/20 05:23:24;;;;;;;4.87;2.53;;;;;;;4.97;61.29;100461.56;5603889;31;33612;-58
2021/12/20 05:26:27;;;;;;;4.97;2.40;;;;;;;4.68;60.94;100462.44;5603339;31;33554;-58
2021/12/20 05:29:29;;;;;;;6.72;2.50;;;;;;;4.93;62.67;100470.03;5603093;31;34178;-58
2021/12/20 05:32:32;;;;;;;5.20;2.80;;;;;;;4.86;60.76;100468.56;5603716;31;33735;-58
2021/12/20 05:35:34;;;;;;;4.65;2.53;;;;;;;4.84;59.10;100470.69;5591435;31;33624;-58
2021/12/20 05:38:36;;;;;;;4.25;2.33;;;;;;;5.06;61.36;100473.41;5580998;31;34353;-58
2021/12/20 05:41:38;;;;;;;6.55;2.60;;;;;;;4.99;60.00;100481.53;5583170;31;33713;-58
2021/12/20 05:44:41;;;;;;;4.70;2.60;;;;;;;4.78;59.39;100472.44;5583789;32;33555;-58
2021/12/20 05:47:44;;;;;;;6.68;2.42;;;;;;;5.00;59.70;100472.53;5573824;32;34267;-58
2021/12/20 05:50:46;;;;;;;6.20;2.78;;;;;;;4.84;60.55;100483.97;5578699;32;34501;-58
2021/12/20 05:53:48;;;;;;;4.22;2.37;;;;;;;4.89;58.88;100479.50;5568474;32;33552;-58
2021/12/20 05:56:54;;;;;;;5.40;2.75;;;;;;;4.91;58.79;100481.94;5563933;32;33479;-58
2021/12/20 05:59:56;;;;;;;5.12;2.50;;;;;;;5.03;58.73;100487.19;5563933;32;33616;-58
2021/12/20 06:03:04;;;;;;;7.95;2.65;;;;;;;4.64;57.20;100495.81;5564139;32;33660;-58
2021/12/20 06:06:08;;;;;;;6.03;2.50;;;;;;;4.37;57.64;100495.59;5567174;32;34343;-58
2021/12/20 06:09:10;;;;;;;6.43;2.37;;;;;;;4.28;56.97;100482.94;5572368;32;33714;-58
2021/12/20 06:12:13;;;;;;;7.12;2.03;;;;;;;4.32;57.84;100495.47;5570326;32;33573;-58
2021/12/20 06:15:16;;;;;;;5.12;2.45;;;;;;;4.63;56.52;100496.84;5563149;32;33828;-58
2021/12/20 06:18:18;;;;;;;3.85;2.22;;;;;;;4.46;56.60;100506.62;5568591;32;33877;-58
2021/12/20 06:21:21;;;;;;;4.18;2.22;;;;;;;4.60;56.28;100507.97;5568841;32;34256;-58
2021/12/20 06:24:23;;;;;;;5.68;2.05;;;;;;;4.44;55.89;100512.19;5567695;32;34397;-58
2021/12/20 06:27:26;;;;;;;2.92;1.92;;;;;;;4.46;58.71;100520.69;5559027;32;33873;-58
2021/12/20 06:30:28;;;;;;;4.37;2.35;;;;;;;4.37;55.63;100521.28;5562980;32;33579;-58
2021/12/20 06:33:30;;;;;;;3.28;1.83;;;;;;;4.21;57.45;100520.22;5568859;32;34827;-58
2021/12/20 06:36:33;;;;;;;3.60;2.00;;;;;;;4.13;57.47;100537.28;5559578;32;33657;-58
2021/12/20 06:39:35;;;;;;;5.75;2.22;;;;;;;4.13;56.48;100533.81;5554995;32;33216;-58
2021/12/20 06:42:38;;;;;;;3.78;1.80;;;;;;;4.10;58.13;100544.91;5556784;32;34366;-58
2021/12/20 06:45:41;;;;;;;4.10;2.20;;;;;;;4.21;57.23;100555.50;5568952;32;33301;-58
2021/12/20 06:48:47;;;;;;;5.50;2.33;;;;;;;4.48;57.36;100563.75;5563367;32;33567;-58
2021/12/20 06:51:52;;;;;;;4.35;2.75;;;;;;;4.63;55.47;100570.41;5561745;32;33569;-58
2021/12/20 06:54:54;;;;;;;5.55;2.47;;;;;;;4.43;55.76;100560.19;5568535;32;34326;-58
2021/12/20 06:57:56;;;;;;;4.05;2.28;;;;;;;4.44;57.54;100562.63;5568315;32;34244;-58
2021/12/20 07:00:59;;;;;;;6.20;2.33;;;;;;;4.64;55.16;100564.88;5569915;32;33555;-58
2021/12/20 07:04:02;;;;;;;5.85;2.15;;;;;;;4.39;54.67;100567.81;5558832;32;33575;-58
2021/12/20 07:07:05;;;;;;;5.82;2.33;;;;;;;4.37;54.74;100572.56;5550764;32;33839;-58
2021/12/20 07:10:08;;;;;;;4.22;2.00;;;;;;;4.52;54.33;100568.59;5550769;32;34255;-58
2021/12/20 07:13:11;;;;;;;4.10;2.05;;;;;;;4.38;55.34;100574.16;5550581;32;33652;-58
2021/12/20 07:16:14;;;;;;;4.50;1.95;;;;;;;4.65;54.12;100577.09;5549878;32;33737;-57
2021/12/20 07:19:17;;;;;;;4.28;2.20;;;;;;;4.70;54.70;100571.06;5562867;32;33329;-58
2021/12/20 07:22:19;;;;;;;4.00;2.12;;;;;;;4.58;56.47;100570.31;5549640;32;34215;-58
2021/12/20 07:25:21;;;;;;;7.20;2.20;;;;;;;4.79;54.18;100563.53;5550116;32;33707;-58
2021/12/20 07:28:24;;;;;;;4.40;2.35;;;;;;;4.78;53.05;100578.66;5552202;32;33207;-58
2021/12/20 07:31:26;;;;;;;4.07;2.30;;;;;;;4.67;56.59;100576.88;5551915;32;33644;-58
2021/12/20 07:34:29;;;;;;;3.28;1.83;;;;;;;4.83;53.99;100568.13;5557411;32;34358;-58
2021/12/20 07:37:31;;;;;;;4.43;2.10;;;;;;;4.82;68.63;100560.41;5554775;32;34269;-58
2021/12/20 07:40:33;;;;;;;4.95;2.72;;;;;;;4.58;54.58;100563.16;5550341;32;33675;-58
2021/12/20 07:43:36;;;;;;;5.20;2.22;;;;;;;4.71;53.46;100565.53;5549522;32;33725;-58
2021/12/20 07:46:38;;;;;;;5.87;2.28;;;;;;;4.61;55.49;100567.19;5560897;32;33653;-58
2021/12/20 07:49:41;;;;;;;4.75;2.05;;;;;;;4.64;54.11;100564.06;5552945;32;33572;-58
2021/12/20 07:52:44;;;;;;;4.20;2.40;;;;;;;4.72;56.79;100579.59;5551588;32;33729;-58
2021/12/20 07:55:46;;;;;;;4.65;2.20;;;;;;;4.62;53.58;100580.22;5550125;32;33821;-58
2021/12/20 07:58:48;;;;;;;6.95;2.60;;;;;;;4.85;57.91;100586.50;5553105;32;33949;-58
2021/12/20 08:01:51;;;;;;;3.95;2.00;;;;;;;5.13;56.63;100602.44;5549701;32;33765;-58
2021/12/20 08:04:54;;;;;;;8.32;2.80;;;;;;;4.75;53.26;100599.59;5555257;32;33763;-58
2021/12/20 08:07:56;;;;;;;7.22;2.10;;;;;;;4.94;53.98;100588.53;5549564;32;33642;-58
2021/12/20 08:10:59;;;;;;;5.65;2.08;;;;;;;4.93;55.27;100596.72;5566430;32;33636;-58
2021/12/20 08:14:02;;;;;;;4.70;2.35;;;;;;;4.97;52.69;100600.53;5568807;32;34305;-58
2021/12/20 08:17:05;;;;;;;3.80;2.20;;;;;;;5.05;52.96;100588.72;5567806;32;33748;-58
2021/12/20 08:20:10;;;;;;;2.95;1.98;;;;;;;4.91;52.58;100590.88;5559198;32;33531;-58
2021/12/20 08:23:12;;;;;;;4.75;2.28;;;;;;;5.26;57.70;100611.16;5564231;32;33711;-58
2021/12/20 08:26:15;;;;;;;4.05;1.90;;;;;;;5.57;51.40;100604.50;5558817;32;34443;-58
2021/12/20 08:29:18;;;;;;;3.87;2.05;;;;;;;5.30;51.63;100601.66;5564480;32;33790;-58
2021/12/20 08:32:20;;;;;;;6.75;2.28;;;;;;;5.36;51.93;100603.34;5563372;32;33612;-58
2021/12/20 08:35:27;;;;;;;5.72;2.10;;;;;;;6.22;57.88;100608.41;5566132;32;33217;-58
2021/12/20 08:38:33;;;;;;;3.87;1.95;;;;;;;6.30;52.57;100616.00;5567536;32;33492;-58
2021/12/20 08:41:35;;;;;;;5.12;1.80;;;;;;;6.78;56.76;100612.59;5560266;32;33856;-58
2021/12/20 08:44:38;;;;;;;4.78;1.87;;;;;;;7.22;53.96;100617.88;5566071;32;33689;-58
2021/12/20 08:47:41;;;;;;;4.20;2.00;;;;;;;6.62;49.68;100618.78;5550135;32;33992;-58
2021/12/20 08:50:43;;;;;;;7.55;2.12;;;;;;;5.81;50.27;100619.25;5562967;32;33635;-58
2021/12/20 08:53:50;;;;;;;4.00;2.03;;;;;;;5.70;51.81;100617.50;5565646;32;33625;-58
2021/12/20 08:56:53;;;;;;;4.32;1.90;;;;;;;5.72;54.70;100628.69;5567906;32;33878;-58
2021/12/20 08:59:56;;;;;;;3.22;1.60;;;;;;;6.43;50.16;100650.25;5554575;32;33619;-58
2021/12/20 09:02:59;;;;;;;2.03;1.48;;;;;;;6.61;50.96;100651.03;5561435;32;33356;-58
2021/12/20 09:06:02;;;;;;;3.20;1.62;;;;;;;6.51;59.42;100652.50;5549770;32;33633;-58
2021/12/20 09:09:06;;;;;;;3.37;1.77;;;;;;;6.64;48.83;100651.34;5566437;32;34206;-58
2021/12/20 09:12:09;;;;;;;6.90;1.77;;;;;;;6.00;49.58;100643.78;5559020;32;34319;-58
2021/12/20 09:15:16;;;;;;;6.95;2.25;;;;;;;5.60;49.75;100642.06;5566753;32;33297;-58
2021/12/20 09:18:19;;;;;;;6.07;1.73;;;;;;;5.94;49.02;100638.62;5563137;32;33663;-58
2021/12/20 09:21:25;;;;;;;2.55;1.50;;;;;;;5.48;50.22;100629.87;5566065;32;33752;-58
2021/12/20 09:24:28;;;;;;;3.92;1.60;;;;;;;5.41;49.61;100627.37;5558730;32;33597;-58
2021/12/20 09:30:44;;;;;;;3.50;1.70;;;;;;;5.54;50.64;100628.94;5548592;32;33550;-58
2021/12/20 09:33:47;;;;;;;5.78;2.00;;;;;;;5.56;49.82;100642.78;5565193;32;33746;-58
2021/12/20 09:36:50;;;;;;;4.20;1.83;;;;;;;5.03;51.00;100606.75;5566329;32;33712;-58
2021/12/20 09:39:55;;;;;;;4.53;1.98;;;;;;;5.00;51.69;100594.75;5566549;32;34181;-58
2021/12/20 09:43:01;;;;;;;6.20;1.83;;;;;;;5.07;52.17;100595.41;5551535;32;33742;-58
2021/12/20 09:46:03;;;;;;;3.55;1.70;;;;;;;5.31;50.69;100587.31;5568383;32;33025;-58
2021/12/20 09:49:07;;;;;;;3.95;1.67;;;;;;;4.94;51.44;100577.91;5570574;32;34222;-58
2021/12/20 09:52:09;;;;;;;2.10;1.45;;;;;;;5.06;51.66;100598.28;5567526;32;33442;-58
2021/12/20 09:55:16;;;;;;;3.33;1.80;;;;;;;5.11;52.55;100582.47;5570297;32;33677;-58
2021/12/20 09:58:21;;;;;;;3.58;2.00;;;;;;;4.97;51.56;100563.34;5566110;32;33713;-58
2021/12/20 10:01:26;;;;;;;5.10;1.90;;;;;;;5.01;51.65;100576.97;5562330;32;34137;-58
2021/12/20 10:04:29;;;;;;;3.42;1.50;;;;;;;4.99;52.72;100579.84;5569934;32;33788;-58
2021/12/20 10:07:33;;;;;;;3.83;1.67;;;;;;;5.03;51.98;100578.31;5569283;32;33823;-58
2021/12/20 10:10:47;;;;;;;4.82;2.10;;;;;;;5.12;53.18;100571.56;5564744;32;33633;-58
2021/12/20 10:14:02;;;;;;;3.30;1.67;;;;;;;5.03;53.12;100569.53;5570532;32;33779;-59
2021/12/20 10:17:05;;;;;;;3.53;1.57;;;;;;;4.93;52.64;100586.94;5569875;32;34237;-58
2021/12/20 10:20:19;;;;;;;4.07;1.55;;;;;;;5.17;52.99;100597.44;5569136;32;33642;-58
2021/12/20 10:23:28;;;;;;;3.78;1.48;;;;;;;5.22;53.86;100594.06;5563162;32;33792;-58
2021/12/20 10:26:38;;;;;;;2.47;1.58;;;;;;;5.20;52.91;100591.66;5561012;32;35310;-57
2021/12/20 10:29:41;;;;;;;3.90;1.83;;;;;;;5.11;52.26;100595.75;5569113;32;33803;-58
2021/12/20 10:32:44;;;;;;;2.10;1.70;;;;;;;5.23;52.98;100590.34;5566929;32;33621;-58
2021/12/20 10:35:53;;;;;;;5.53;1.83;;;;;;;5.23;54.88;100590.34;5562412;32;33217;-58
2021/12/20 10:38:57;;;;;;;2.35;1.45;;;;;;;5.34;52.80;100590.31;5550729;32;33713;-58
2021/12/20 10:42:18;;;;;;;4.47;1.67;;;;;;;5.32;52.73;100592.38;5551460;32;34413;-58
2021/12/20 10:45:20;;;;;;;6.70;1.67;;;;;;;5.30;52.53;100614.97;5560528;32;33706;-58
2021/12/20 10:48:30;;;;;;;4.05;2.00;;;;;;;5.03;52.67;100607.53;5567134;32;33709;-58
2021/12/20 10:51:36;;;;;;;4.97;1.80;;;;;;;5.24;56.10;100611.41;5558196;32;34007;-58
2021/12/20 10:54:42;;;;;;;5.07;2.17;;;;;;;5.36;56.25;100613.97;5570007;32;33742;-58
2021/12/20 10:57:45;;;;;;;3.30;1.40;;;;;;;5.86;54.14;100622.00;5553736;32;33822;-57
2021/12/20 11:01:36;;;;;;;4.05;1.60;;;;;;;5.46;52.27;100629.31;5560628;32;33815;-57
2021/12/20 11:04:56;;;;;;;5.05;1.77;;;;;;;5.13;54.14;100604.25;5532893;31;33347;-58
2021/12/20 11:11:50;;;;;;;2.78;1.60;;;;;;;5.05;53.75;100608.12;5557887;32;33740;-58
2021/12/20 11:14:56;;;;;;;17.30;2.62;;;;;;;5.03;53.32;100591.59;5558576;32;33792;-58
2021/12/20 11:18:13;;;;;;;5.00;1.95;;;;;;;4.89;52.82;100616.84;5564778;32;33638;-57
2021/12/20 11:21:20;;;;;;;3.75;1.83;;;;;;;4.79;54.08;100563.53;5549909;32;33757;-58
2021/12/20 11:24:35;;;;;;;3.72;1.90;;;;;;;4.87;54.75;100566.63;5549933;32;34186;-58
2021/12/20 11:27:46;;;;;;;4.40;1.95;;;;;;;5.08;56.46;100572.31;5562268;32;34454;-58
2021/12/20 11:30:49;;;;;;;5.85;2.35;;;;;;;5.08;55.31;100570.44;5568170;32;33645;-58
2021/12/20 11:33:54;;;;;;;2.65;1.90;;;;;;;5.03;55.24;100572.19;5561431;32;33592;-58
2021/12/20 11:36:57;;;;;;;4.12;2.15;;;;;;;5.17;55.79;100598.25;5556451;32;33659;-58
2021/12/20 11:40:02;;;;;;;3.65;2.28;;;;;;;5.07;55.70;100594.62;5565266;32;33738;-58
2021/12/20 11:43:04;;;;;;;3.00;1.80;;;;;;;5.19;54.87;100612.09;5569296;32;34301;-58
2021/12/20 11:46:07;;;;;;;4.03;2.00;;;;;;;5.25;54.03;100613.00;5557681;32;33684;-58
2021/12/20 11:49:10;;;;;;;4.40;2.10;;;;;;;5.48;54.18;100617.38;5567272;32;33349;-58
2021/12/20 11:52:18;;;;;;;4.93;1.90;;;;;;;5.58;52.46;100630.06;5569106;32;34572;-58
2021/12/20 11:55:28;;;;;;;3.35;1.85;;;;;;;5.73;54.33;100621.50;5569342;32;33759;-58
2021/12/20 11:58:33;;;;;;;5.50;1.70;;;;;;;5.50;52.35;100641.91;5549882;32;33639;-58
2021/12/20 12:01:35;;;;;;;3.62;1.67;;;;;;;5.40;52.87;100645.19;5549270;32;33751;-58
2021/12/20 12:05:05;;;;;;;4.50;1.77;;;;;;;5.52;52.91;100642.44;5549627;32;33659;-58
2021/12/20 12:08:30;;;;;;;4.25;1.77;;;;;;;5.94;54.72;100652.75;5561384;32;33593;-58
2021/12/20 12:11:34;;;;;;;2.10;1.50;;;;;;;5.58;52.35;100651.31;5552447;32;33600;-58
2021/12/20 12:15:02;;;;;;;3.62;1.80;;;;;;;5.71;53.27;100647.56;5549705;32;34025;-58
2021/12/20 12:18:10;;;;;;;4.78;2.25;;;;;;;5.72;52.29;100651.81;5561394;32;33986;-58
2021/12/20 12:21:31;;;;;;;3.12;1.70;;;;;;;5.83;52.83;100653.63;5560844;32;33844;-58
2021/12/20 12:24:50;;;;;;;3.15;1.95;;;;;;;6.06;56.33;100653.47;5565997;32;33811;-58
2021/12/20 12:27:57;;;;;;;2.87;1.67;;;;;;;5.54;50.95;100650.19;5564862;32;33715;-58
2021/12/20 12:31:04;;;;;;;3.50;1.80;;;;;;;5.80;51.52;100651.44;5569411;32;33759;-58
2021/12/20 12:34:08;;;;;;;5.18;1.60;;;;;;;5.98;51.94;100653.06;5564474;32;33946;-58
2021/12/20 12:37:27;;;;;;;2.37;1.30;;;;;;;5.89;51.56;100661.44;5557908;32;33631;-58
2021/12/20 12:40:31;;;;;;;3.50;1.50;;;;;;;5.41;50.96;100665.41;5548940;32;33703;-58
2021/12/20 12:44:02;;;;;;;2.10;1.20;;;;;;;5.41;51.98;100665.41;5549309;32;33621;-58
2021/12/20 12:47:13;;;;;;;3.35;1.30;;;;;;;5.34;51.40;100666.59;5556623;32;33801;-58
2021/12/20 12:50:26;;;;;;;4.35;1.65;;;;;;;5.15;52.83;100672.09;5568147;32;33806;-58
2021/12/20 12:53:43;;;;;;;2.87;1.50;;;;;;;5.29;52.94;100671.81;5557926;32;33877;-58
2021/12/20 12:56:45;;;;;;;3.12;1.50;;;;;;;5.21;51.97;100661.56;5565803;32;33955;-58
2021/12/20 12:59:48;;;;;;;3.28;1.67;;;;;;;5.45;52.37;100671.03;5558645;32;33245;-58
2021/12/20 13:02:53;;;;;;;2.25;1.08;;;;;;;5.31;51.03;100680.38;5549156;32;34530;-58
2021/12/20 13:05:55;;;;;;;2.37;1.27;;;;;;;5.17;51.00;100678.00;5567329;32;34200;-58
2021/12/20 13:09:00;;;;;;;2.17;1.35;;;;;;;5.22;52.15;100682.56;5568120;32;33443;-58
2021/12/20 13:12:08;;;;;;;2.17;1.40;;;;;;;5.16;58.09;100684.31;5567796;32;33692;-58
2021/12/20 13:15:22;;;;;;;3.25;1.17;;;;;;;5.21;51.99;100690.81;5567667;32;33186;-58
2021/12/20 13:18:43;;;;;;;2.50;1.23;;;;;;;5.00;51.82;100694.87;5568235;32;33694;-58
2021/12/20 13:21:57;;;;;;;3.67;1.55;;;;;;;4.96;51.96;100697.22;5570417;32;33747;-58
2021/12/20 13:24:59;;;;;;;2.60;1.50;;;;;;;5.14;53.06;100705.03;5570358;32;34372;-58
2021/12/20 13:28:03;;;;;;;3.00;1.40;;;;;;;5.22;52.93;100711.81;5570342;32;34350;-58
2021/12/20 13:31:15;;;;;;;3.80;1.98;;;;;;;5.31;52.31;100715.72;5570583;32;34444;-58
2021/12/20 13:34:20;;;;;;;1.92;1.15;;;;;;;5.15;51.03;100709.28;5570332;32;34406;-58
2021/12/20 13:37:31;;;;;;;3.87;1.37;;;;;;;5.08;51.11;100710.47;5570403;31;33733;-58
2021/12/20 13:40:42;;;;;;;4.12;1.45;;;;;;;5.13;52.19;100723.84;5569125;32;33833;-58
2021/12/20 13:43:47;;;;;;;1.92;1.30;;;;;;;5.24;52.66;100708.94;5570245;32;35193;-58
2021/12/20 13:46:50;;;;;;;2.97;1.37;;;;;;;5.12;51.91;100722.25;5570667;32;34276;-58
2021/12/20 13:49:52;;;;;;;4.72;1.40;;;;;;;5.15;52.29;100746.50;5570410;32;33771;-58
2021/12/20 13:52:55;;;;;;;3.20;1.50;;;;;;;5.16;53.71;100726.84;5570497;32;33303;-58
2021/12/20 13:56:00;;;;;;;3.22;1.33;;;;;;;5.15;52.99;100738.53;5570498;32;33623;-58
2021/12/20 13:59:02;;;;;;;2.90;1.80;;;;;;;5.38;53.03;100736.84;5570632;32;34423;-58
2021/12/20 14:02:13;;;;;;;2.50;1.70;;;;;;;5.31;53.71;100730.88;5570483;32;33784;-58
2021/12/20 14:05:19;;;;;;;3.53;1.70;;;;;;;5.11;52.45;100745.37;5570312;32;33678;-58
2021/12/20 14:08:23;;;;;;;2.33;1.67;;;;;;;5.35;57.13;100753.28;5570444;32;33791;-58
2021/12/20 14:11:26;;;;;;;5.82;1.80;;;;;;;5.54;54.09;100759.22;5570404;32;33787;-58
2021/12/20 14:14:28;;;;;;;3.45;1.95;;;;;;;5.27;54.70;100764.28;5570297;32;33677;-58
2021/12/20 14:17:53;;;;;;;2.92;1.62;;;;;;;5.37;53.59;100764.50;5569990;32;34359;-58
2021/12/20 14:20:55;;;;;;;3.03;1.55;;;;;;;5.45;53.91;100760.62;5569354;32;33602;-58
2021/12/20 14:23:58;;;;;;;3.45;2.12;;;;;;;5.51;53.24;100767.69;5569783;32;34697;-58
2021/12/20 14:27:04;;;;;;;2.67;1.65;;;;;;;5.64;53.15;100764.72;5570004;32;33732;-58
2021/12/20 14:30:27;;;;;;;2.87;1.83;;;;;;;5.52;53.92;100769.28;5570536;32;33641;-58
2021/12/20 14:33:35;;;;;;;3.58;2.20;;;;;;;5.80;53.71;100771.16;5570648;32;34378;-58
2021/12/20 14:36:42;;;;;;;2.72;1.85;;;;;;;6.08;58.72;100773.78;5570457;31;34222;-58
2021/12/20 14:39:45;;;;;;;;;;;;;;;5.87;54.84;100764.62;5570360;32;34549;-58
2021/12/20 14:43:10;;;;;;;4.20;2.30;;;;;;;5.96;52.70;100766.91;5569968;32;33992;-58
2021/12/20 14:46:29;;;;;;;4.90;2.25;;;;;;;5.97;52.78;100764.03;5569840;32;33649;-58
2021/12/20 14:49:43;;;;;;;6.03;1.83;;;;;;;5.61;52.91;100758.03;5570626;32;34417;-58
2021/12/20 14:52:45;;;;;;;3.22;1.60;;;;;;;5.70;53.94;100765.66;5570677;32;33736;-58
2021/12/20 14:55:48;;;;;;;3.28;1.80;;;;;;;5.65;54.91;100761.81;5570229;32;34236;-58
2021/12/20 14:58:50;;;;;;;4.40;2.05;;;;;;;5.85;52.83;100764.03;5570204;32;34231;-58
2021/12/20 15:01:53;;;;;;;3.50;1.80;;;;;;;5.92;52.28;100761.22;5569489;32;33796;-58
2021/12/20 15:04:58;;;;;;;3.10;1.90;;;;;;;5.75;52.23;100768.38;5570271;32;34203;-58
2021/12/20 15:08:00;;;;;;;4.60;2.15;;;;;;;5.75;52.53;100755.09;5570166;32;34340;-58
2021/12/20 15:11:03;;;;;;;6.07;2.12;;;;;;;5.93;53.21;100754.09;5570183;32;33651;-58
2021/12/20 15:14:06;;;;;;;4.03;2.10;;;;;;;5.73;51.36;100751.84;5570409;32;33675;-58
2021/12/20 15:17:08;;;;;;;2.80;1.90;;;;;;;5.79;52.91;100745.56;5570162;32;33762;-58
2021/12/20 15:20:11;;;;;;;3.85;2.20;;;;;;;5.89;51.31;100756.38;5569762;32;33350;-58
2021/12/20 15:23:13;;;;;;;3.92;2.30;;;;;;;5.91;52.57;100758.81;5570176;32;34465;-58
2021/12/20 15:26:16;;;;;;;4.40;2.42;;;;;;;5.63;53.40;100753.28;5570053;32;33667;-58
2021/12/20 15:29:21;;;;;;;7.12;2.10;;;;;;;5.73;62.35;100754.50;5570229;32;34424;-58
2021/12/20 15:32:23;;;;;;;3.62;2.30;;;;;;;5.70;54.98;100766.44;5570181;32;33950;-58
2021/12/20 15:35:26;;;;;;;4.82;2.45;;;;;;;5.48;53.37;100763.63;5569980;32;33801;-58
2021/12/20 15:38:28;;;;;;;7.70;2.67;;;;;;;5.64;55.82;100759.41;5569898;32;34472;-58
2021/12/20 15:41:31;;;;;;;3.95;2.20;;;;;;;5.54;53.91;100762.69;5568888;32;33728;-58
2021/12/20 15:44:33;;;;;;;4.22;2.30;;;;;;;5.51;54.18;100773.78;5569896;32;33784;-58
2021/12/20 15:47:35;;;;;;;2.97;2.15;;;;;;;5.54;53.78;100777.84;5569522;32;34305;-58
2021/12/20 15:50:43;;;;;;;3.58;2.10;;;;;;;5.53;53.88;100777.03;5570087;32;33867;-58
2021/12/20 15:53:45;;;;;;;5.37;2.15;;;;;;;5.36;53.89;100774.31;5569762;32;33712;-58
2021/12/20 15:56:53;;;;;;;4.70;2.50;;;;;;;5.80;54.77;100776.47;5570071;32;33720;-58
2021/12/20 15:59:56;;;;;;;3.80;2.20;;;;;;;5.89;55.47;100780.34;5569664;32;33768;-58
2021/12/20 16:02:58;;;;;;;4.90;2.67;;;;;;;5.75;53.41;100781.69;5569962;32;34422;-58
2021/12/20 16:06:01;;;;;;;4.15;2.30;;;;;;;5.92;53.75;100790.50;5569834;32;33816;-58
2021/12/20 16:09:04;;;;;;;4.57;2.45;;;;;;;5.83;53.82;100795.41;5570083;32;34470;-58
2021/12/20 16:12:07;;;;;;;3.53;2.40;;;;;;;5.70;53.54;100793.03;5569453;32;33661;-58
2021/12/20 16:15:11;;;;;;;3.80;2.50;;;;;;;5.09;55.21;100797.94;5569485;32;33770;-58
2021/12/20 16:18:14;;;;;;;5.40;3.08;;;;;;;5.27;54.85;100802.31;5568593;32;34321;-58
2021/12/20 16:21:16;;;;;;;4.57;3.08;;;;;;;5.25;54.72;100806.22;5569448;32;33676;-58
2021/12/20 16:24:18;;;;;;;8.55;3.22;;;;;;;5.27;56.45;100798.84;5569673;32;34454;-58
2021/12/20 16:27:20;;;;;;;5.72;3.08;;;;;;;5.22;54.79;100799.53;5569722;32;33748;-58
2021/12/20 16:30:26;;;;;;;4.57;2.40;;;;;;;5.11;55.21;100790.53;5569164;32;33443;-58
2021/12/20 16:33:33;;;;;;;5.30;2.70;;;;;;;4.99;55.12;100788.94;5569158;32;34315;-58
2021/12/20 16:36:35;;;;;;;8.05;2.83;;;;;;;5.12;55.29;100786.84;5569072;32;34397;-58
2021/12/20 16:39:37;;;;;;;4.32;2.60;;;;;;;4.81;55.06;100780.06;5568955;32;33676;-58
2021/12/20 16:42:42;;;;;;;6.75;2.95;;;;;;;4.72;55.89;100782.25;5568767;32;33736;-58
